Dk Ione — 3ETX — position and weather

sailwx.info

Track history (hours):
 
Tides and Currents Weather Stations Pressure Air Temp Water Temp Dewpoint Dewpoint Depression Visibility Wind Speed Wind Dir Waves Ship Positions

Dk Ione

Last reported at 2014-Oct-10 21:27 UTC. Time now 2014-Oct-23 06:51 UTC.
Position N 01°13' E 103°31'.
Warning: this ship's position is 12 days out of date.

Length 196 m; draft 13.2 m.

Type: Cargo ship. MMSI: 353245000.

Date/timePositionNaut miles runAvg speedWind from/ knotsBaromVisibWave heightAir tempDewpointWater temp
2014-Oct-10 21:27N 01°13' E 103°31'1112.4
2014-Oct-10 20:34N 01°10' E 103°42'1111.4
2014-Oct-10 19:33N 01°13' E 103°53'9 8.8
2014-Oct-10 18:34N 01°17' E 104°00'0 0.1
2014-Oct-10 17:33N 01°17' E 104°00'0 0.0
2014-Oct-10 12:33N 01°17' E 104°00'0 0.2
2014-Oct-10 11:33N 01°17' E 104°00'0 0.1
2014-Oct-10 10:33N 01°17' E 104°00'0 0.1
2014-Oct-10 09:21N 01°17' E 104°01'0 0.0
2014-Oct-10 08:27N 01°17' E 104°01'0 0.0
2014-Oct-10 07:33N 01°17' E 104°01'0 0.0
2014-Oct-10 06:21N 01°17' E 104°01'0 0.2
2014-Oct-10 05:27N 01°17' E 104°00'0 0.1
2014-Oct-10 04:07N 01°17' E 104°00'0 0.0
2014-Oct-10 01:19N 01°17' E 104°00'0 0.5
2014-Oct-10 00:33N 01°17' E 103°60'3 3.5
2014-Oct-09 23:33N 01°16' E 103°57'8 7.2
2014-Oct-09 22:27N 01°16' E 104°05'  
Track history (hours):
 
Tides and Currents Weather Stations Pressure Air Temp Water Temp Dewpoint Dewpoint Depression Visibility Wind Speed Wind Dir Waves Ship Positions

Dk Ione

Last reported at 2014-Oct-10 21:27 UTC. Time now 2014-Oct-23 06:51 UTC.
Position N 01°13' E 103°31'.
Warning: this ship's position is 12 days out of date.

Length 196 m; draft 13.2 m.

Type: Cargo ship. MMSI: 353245000.

Date/timePositionNaut miles runAvg speedWind from/ knotsBaromVisibWave heightAir tempDewpointWater temp
2014-Oct-10 21:27N 01°13' E 103°31'1112.4
2014-Oct-10 20:34N 01°10' E 103°42'1111.4
2014-Oct-10 19:33N 01°13' E 103°53'9 8.8
2014-Oct-10 18:34N 01°17' E 104°00'0 0.1
2014-Oct-10 17:33N 01°17' E 104°00'0 0.0
2014-Oct-10 12:33N 01°17' E 104°00'0 0.2
2014-Oct-10 11:33N 01°17' E 104°00'0 0.1
2014-Oct-10 10:33N 01°17' E 104°00'0 0.1
2014-Oct-10 09:21N 01°17' E 104°01'0 0.0
2014-Oct-10 08:27N 01°17' E 104°01'0 0.0
2014-Oct-10 07:33N 01°17' E 104°01'0 0.0
2014-Oct-10 06:21N 01°17' E 104°01'0 0.2
2014-Oct-10 05:27N 01°17' E 104°00'0 0.1
2014-Oct-10 04:07N 01°17' E 104°00'0 0.0
2014-Oct-10 01:19N 01°17' E 104°00'0 0.5
2014-Oct-10 00:33N 01°17' E 103°60'3 3.5
2014-Oct-09 23:33N 01°16' E 103°57'8 7.2
2014-Oct-09 22:27N 01°16' E 104°05'  

Dump ship's entire track history